Terminal Aerodrome Forecast
Issued by NWS

Home | Current Version | Previous Version | Text Only | Print | Product List | Glossary On
Versions: 1 2 3 4 5 6 7 8 9 10 11 12
000
FTUS46 KSTO 291724
TAFMHR
TAF
KMHR 291724Z 2918/3018 VRB03KT P6SM SKC
     FM300100 22007KT P6SM SKC
     FM300700 15005KT P6SM SKC=

USA.gov is the U.S. government's official web portal to all federal, state and local government web resources and services.